Terminal Aerodrome Forecast
Issued by NWS Grand Junction, CO

Home | Current Version | Previous Version | Text Only | Print | Product List | Glossary On
Versions: 1 2 3 4 5 6 7 8 9 10 11 12 13 14 15 16 17 18 19 20 21 22 23 24 25 26 27 28 29 30 31 32 33 34 35 36 37
000
FTUS45 KGJT 031120
TAFGJT
TAF
KGJT 031120Z 0312/0412 11009KT P6SM VCSH SCT070 BKN110
     FM031700 15008KT P6SM VCTS SCT070CB BKN110
     FM032000 25014G22KT P6SM VCTS SCT070CB BKN110
     FM040200 11010KT P6SM SCT150=

USA.gov is the U.S. government's official web portal to all federal, state and local government web resources and services.